Time;durP1;ratioP1;P1;durP2;ratioP2;P2;SDS_P1;SDS_P2;PMS_P1;PMS_P2;Temp;Humidity;BMP_temperature;BMP_pressure;BME280_temperature;BME280_humidity;BME280_pressure;Samples;Min_cycle;Max_cycle;Signal;HPM_P1;HPM_P2
2023/08/26 00:00:17;;;;;;;8.20;4.75;;;18.10;99.90;;;;;;5117954;27;20557;-85
2023/08/26 00:02:44;;;;;;;7.47;4.57;;;18.10;99.90;;;;;;5109587;28;20235;-87
2023/08/26 00:05:11;;;;;;;9.95;5.15;;;18.10;99.90;;;;;;5093386;28;20648;-85
2023/08/26 00:07:37;;;;;;;12.93;5.07;;;18.10;99.90;;;;;;5107752;28;20202;-86
2023/08/26 00:10:05;;;;;;;8.02;5.30;;;18.10;99.90;;;;;;5092735;28;20758;-86
2023/08/26 00:12:32;;;;;;;8.48;5.60;;;18.10;99.90;;;;;;5111157;27;20199;-85
2023/08/26 00:14:59;;;;;;;7.68;5.38;;;18.10;99.90;;;;;;5092612;28;20209;-85
2023/08/26 00:17:26;;;;;;;7.85;5.50;;;18.10;99.90;;;;;;5102591;28;20241;-85
2023/08/26 00:19:54;;;;;;;8.15;5.38;;;18.10;99.90;;;;;;5093096;28;20860;-84
2023/08/26 00:22:21;;;;;;;9.07;5.80;;;18.00;99.90;;;;;;5095830;28;20191;-84
2023/08/26 00:24:48;;;;;;;8.55;5.57;;;18.00;99.90;;;;;;5093105;28;20210;-86
2023/08/26 00:27:15;;;;;;;8.35;5.35;;;18.00;99.90;;;;;;5110976;28;20541;-85
2023/08/26 00:29:42;;;;;;;9.48;5.13;;;18.10;99.90;;;;;;5096424;28;20545;-84
2023/08/26 00:32:09;;;;;;;6.57;5.15;;;18.10;99.90;;;;;;5112487;27;20225;-86
2023/08/26 00:34:36;;;;;;;7.47;5.57;;;18.10;99.90;;;;;;5092769;28;20217;-83
2023/08/26 00:37:03;;;;;;;9.27;5.70;;;18.10;99.90;;;;;;5111482;28;20201;-84
2023/08/26 00:39:31;;;;;;;12.18;6.13;;;18.10;99.90;;;;;;5095688;28;20248;-82
2023/08/26 00:41:58;;;;;;;6.78;4.88;;;18.10;99.90;;;;;;5089048;28;20303;-84
2023/08/26 00:44:28;;;;;;;7.57;5.28;;;18.10;99.90;;;;;;5092903;28;20203;-85
2023/08/26 00:46:59;;;;;;;8.85;5.03;;;18.00;99.90;;;;;;5093059;28;20223;-84
2023/08/26 00:49:27;;;;;;;8.30;5.75;;;18.10;99.90;;;;;;5092349;28;20237;-84
2023/08/26 00:51:55;;;;;;;8.20;5.18;;;18.10;99.90;;;;;;5086239;28;20205;-84
2023/08/26 00:54:23;;;;;;;8.18;5.15;;;18.10;99.90;;;;;;5091684;28;20199;-85
2023/08/26 00:56:50;;;;;;;6.65;5.40;;;18.10;99.90;;;;;;5091379;28;20669;-85
2023/08/26 00:59:17;;;;;;;8.18;5.32;;;18.00;99.90;;;;;;5092037;28;20218;-84
2023/08/26 01:01:46;;;;;;;8.55;5.82;;;18.00;99.90;;;;;;5094854;28;20231;-85
2023/08/26 01:04:13;;;;;;;9.63;5.90;;;18.00;99.90;;;;;;5099852;28;20560;-85
2023/08/26 01:06:40;;;;;;;8.00;5.00;;;18.00;99.90;;;;;;5093830;28;20532;-84
2023/08/26 01:09:07;;;;;;;8.50;5.47;;;18.00;99.90;;;;;;5109975;28;20230;-85
2023/08/26 01:11:58;;;;;;;8.10;5.72;;;18.00;99.90;;;;;;5110193;28;20199;-85
2023/08/26 01:14:38;;;;;;;8.95;5.90;;;17.90;99.90;;;;;;5110129;28;20199;-83
2023/08/26 01:17:06;;;;;;;9.13;5.72;;;17.90;99.90;;;;;;5092110;28;20249;-84
2023/08/26 01:19:38;;;;;;;9.45;5.72;;;17.90;99.90;;;;;;5102962;28;20252;-85
2023/08/26 01:22:09;;;;;;;8.57;5.50;;;17.90;99.90;;;;;;5122272;27;20577;-84
2023/08/26 01:24:43;;;;;;;9.43;5.78;;;17.90;99.90;;;;;;5096789;28;20285;-84
2023/08/26 01:27:10;;;;;;;8.10;5.28;;;17.80;99.90;;;;;;5099612;28;20287;-84
2023/08/26 01:29:37;;;;;;;7.30;5.50;;;17.90;99.90;;;;;;5109612;28;20579;-85
2023/08/26 01:32:34;;;;;;;11.00;5.90;;;17.90;99.90;;;;;;5110241;28;20266;-85
2023/08/26 01:35:13;;;;;;;12.90;6.40;;;17.90;99.90;;;;;;5091478;28;20387;-83
2023/08/26 01:37:41;;;;;;;8.15;5.82;;;17.90;99.90;;;;;;5110327;28;20187;-85
2023/08/26 01:40:10;;;;;;;8.48;6.18;;;17.80;99.90;;;;;;5098470;28;20206;-85
2023/08/26 01:42:42;;;;;;;7.80;5.07;;;17.80;99.90;;;;;;5110487;28;20199;-84
2023/08/26 01:45:11;;;;;;;7.55;5.60;;;17.80;99.90;;;;;;5099141;28;20206;-82
2023/08/26 01:47:38;;;;;;;8.02;5.80;;;17.80;99.90;;;;;;5098902;28;20694;-86
2023/08/26 01:50:06;;;;;;;7.07;5.75;;;17.80;99.90;;;;;;5100353;28;20227;-86
2023/08/26 01:52:33;;;;;;;7.95;5.50;;;17.80;99.90;;;;;;5109432;28;20678;-85
2023/08/26 01:55:00;;;;;;;8.15;5.40;;;17.80;99.90;;;;;;5099071;28;20202;-85
2023/08/26 01:57:27;;;;;;;9.60;5.85;;;17.90;99.90;;;;;;5098966;28;20279;-86
2023/08/26 01:59:56;;;;;;;8.93;6.18;;;17.70;99.90;;;;;;5097615;28;20615;-85
2023/08/26 02:02:23;;;;;;;8.38;5.55;;;17.80;99.90;;;;;;5092669;28;20228;-85
2023/08/26 02:04:50;;;;;;;8.65;5.45;;;17.80;99.90;;;;;;5093273;28;20659;-85
2023/08/26 02:07:17;;;;;;;8.02;5.55;;;17.80;99.90;;;;;;5084182;28;20204;-84
2023/08/26 02:09:44;;;;;;;11.15;5.88;;;17.70;99.90;;;;;;5096260;28;20733;-86
2023/08/26 02:12:11;;;;;;;11.90;6.55;;;17.70;99.90;;;;;;5092449;28;20204;-86
2023/08/26 02:14:38;;;;;;;8.80;5.50;;;17.70;99.90;;;;;;5103666;28;20220;-85
2023/08/26 02:17:05;;;;;;;12.23;5.35;;;17.80;99.90;;;;;;5098907;28;20219;-83
2023/08/26 02:19:32;;;;;;;7.38;5.40;;;17.80;99.90;;;;;;5096957;28;20230;-83
2023/08/26 02:22:00;;;;;;;8.45;5.60;;;17.70;99.90;;;;;;5095852;28;20204;-84
2023/08/26 02:24:31;;;;;;;9.60;5.65;;;17.80;99.90;;;;;;5098173;28;20245;-83
2023/08/26 02:26:58;;;;;;;8.00;5.70;;;17.70;99.90;;;;;;5092958;28;20243;-85
2023/08/26 02:29:30;;;;;;;9.75;6.53;;;17.70;99.90;;;;;;5099712;28;20222;-85
2023/08/26 02:31:57;;;;;;;10.88;6.53;;;17.70;99.90;;;;;;5091199;28;20577;-83
2023/08/26 02:34:25;;;;;;;9.48;5.75;;;17.70;99.90;;;;;;5091435;28;20576;-83
2023/08/26 02:36:52;;;;;;;8.85;6.32;;;17.60;99.90;;;;;;5091189;28;20200;-84
2023/08/26 02:39:19;;;;;;;9.18;6.50;;;17.60;99.90;;;;;;5091296;28;20253;-83
2023/08/26 02:41:46;;;;;;;9.05;6.07;;;17.60;99.90;;;;;;5092821;28;20619;-84
2023/08/26 02:44:13;;;;;;;11.27;6.18;;;17.60;99.90;;;;;;5091174;28;20589;-83
2023/08/26 02:46:40;;;;;;;9.85;5.88;;;17.60;99.90;;;;;;5096543;28;20247;-84
2023/08/26 02:49:07;;;;;;;9.60;6.75;;;17.70;99.90;;;;;;5095431;28;20196;-85
2023/08/26 02:51:34;;;;;;;10.30;6.38;;;17.60;99.90;;;;;;5094164;28;20211;-84
2023/08/26 02:54:01;;;;;;;9.82;5.93;;;17.60;99.90;;;;;;5094108;28;20208;-84
2023/08/26 02:56:27;;;;;;;9.63;6.13;;;17.50;99.90;;;;;;5091266;28;20265;-86
2023/08/26 02:58:55;;;;;;;13.05;6.40;;;17.60;99.90;;;;;;5091954;28;20208;-84
2023/08/26 03:01:24;;;;;;;12.15;6.38;;;17.60;99.90;;;;;;5097112;28;20241;-85
2023/08/26 03:03:50;;;;;;;12.52;7.68;;;17.50;99.90;;;;;;5112978;28;20305;-86
2023/08/26 03:06:18;;;;;;;9.65;6.38;;;17.60;99.90;;;;;;5095143;28;20208;-85
2023/08/26 03:08:44;;;;;;;11.07;6.88;;;17.50;99.90;;;;;;5112591;28;20687;-84
2023/08/26 03:11:14;;;;;;;10.00;6.72;;;17.50;99.90;;;;;;5093948;28;20230;-84
2023/08/26 03:13:41;;;;;;;10.73;7.57;;;17.50;99.90;;;;;;5111792;28;20248;-83
2023/08/26 03:16:10;;;;;;;10.38;6.82;;;17.50;99.90;;;;;;5094030;28;20215;-85
2023/08/26 03:18:40;;;;;;;9.77;6.75;;;17.60;99.90;;;;;;5111720;28;20283;-86
2023/08/26 03:21:09;;;;;;;11.48;7.78;;;17.60;99.90;;;;;;5094193;28;20283;-84
2023/08/26 03:23:36;;;;;;;12.48;7.55;;;17.40;99.90;;;;;;5085970;28;20217;-85
2023/08/26 03:26:05;;;;;;;12.70;7.22;;;17.40;99.90;;;;;;5093528;28;20316;-86
2023/08/26 03:28:32;;;;;;;10.75;7.30;;;17.40;99.90;;;;;;5111393;28;20199;-83
2023/08/26 03:31:04;;;;;;;13.80;6.90;;;17.40;99.90;;;;;;5092366;28;20292;-85
2023/08/26 03:33:34;;;;;;;13.90;8.10;;;17.40;99.90;;;;;;5094187;28;20207;-84
2023/08/26 03:36:05;;;;;;;13.95;8.20;;;17.40;99.90;;;;;;5104587;28;20343;-82
2023/08/26 03:38:33;;;;;;;15.20;8.15;;;17.30;99.90;;;;;;5093309;28;20208;-85
2023/08/26 03:41:04;;;;;;;13.70;7.57;;;17.30;99.90;;;;;;5093528;28;20294;-84
2023/08/26 03:43:31;;;;;;;17.40;9.10;;;17.30;99.90;;;;;;5094878;28;20214;-83
2023/08/26 03:45:59;;;;;;;10.45;7.60;;;17.30;99.90;;;;;;5111382;28;20222;-82
2023/08/26 03:48:26;;;;;;;11.13;6.80;;;17.00;99.90;;;;;;5105884;28;20204;-86
2023/08/26 03:50:56;;;;;;;14.30;7.85;;;17.10;99.90;;;;;;5109477;28;20736;-84
2023/08/26 03:53:23;;;;;;;12.65;7.15;;;;;;;;;;5093225;28;20191;-85
2023/08/26 03:55:50;;;;;;;9.77;6.50;;;16.80;99.90;;;;;;5111649;28;20202;-86
2023/08/26 03:58:17;;;;;;;10.95;6.20;;;16.80;99.90;;;;;;5103550;28;20252;-85
2023/08/26 04:00:43;;;;;;;14.63;6.65;;;16.70;99.90;;;;;;5093386;28;20264;-87
2023/08/26 04:03:10;;;;;;;10.15;6.80;;;16.60;99.90;;;;;;5110993;28;20286;-85
2023/08/26 04:05:38;;;;;;;12.38;7.35;;;16.60;99.90;;;;;;5111896;28;20199;-84
2023/08/26 04:08:05;;;;;;;12.07;6.72;;;16.60;99.90;;;;;;5097388;28;20624;-86
2023/08/26 04:10:32;;;;;;;11.10;6.40;;;16.60;99.90;;;;;;5110755;28;20231;-84
2023/08/26 04:13:20;;;;;;;11.68;6.70;;;16.60;99.90;;;;;;5106281;28;20211;-85
2023/08/26 04:15:47;;;;;;;10.48;6.50;;;16.60;99.90;;;;;;5108441;28;20636;-86
2023/08/26 04:18:14;;;;;;;9.93;6.05;;;16.60;99.90;;;;;;5111331;28;20655;-85
2023/08/26 04:20:44;;;;;;;12.05;7.07;;;16.50;99.90;;;;;;5094225;28;20207;-85
2023/08/26 04:23:11;;;;;;;12.10;6.63;;;16.50;99.90;;;;;;5110827;28;20221;-83
2023/08/26 04:25:39;;;;;;;11.68;6.40;;;16.30;99.90;;;;;;5110593;28;21059;-84
2023/08/26 04:28:06;;;;;;;14.82;6.93;;;16.20;99.90;;;;;;5093271;28;20219;-83
2023/08/26 04:30:34;;;;;;;12.45;6.15;;;16.20;99.90;;;;;;5092715;28;20234;-83
2023/08/26 04:33:01;;;;;;;14.98;6.93;;;16.00;99.90;;;;;;5093051;28;20558;-85
2023/08/26 04:35:31;;;;;;;11.32;6.60;;;16.10;99.90;;;;;;5089756;28;20286;-87
2023/08/26 04:38:01;;;;;;;10.63;6.20;;;16.00;99.90;;;;;;5112540;28;20248;-85
2023/08/26 04:40:29;;;;;;;10.18;6.00;;;15.90;99.90;;;;;;5100439;28;20218;-86
2023/08/26 04:42:56;;;;;;;10.33;6.00;;;15.90;99.90;;;;;;5116944;27;20212;-85
2023/08/26 04:45:23;;;;;;;10.47;6.67;;;15.80;99.90;;;;;;5107367;27;20289;-84
2023/08/26 04:47:50;;;;;;;12.57;7.00;;;16.70;99.90;;;;;;5116326;27;20231;-86
2023/08/26 04:50:19;;;;;;;9.47;6.50;;;15.70;99.90;;;;;;5095459;28;20262;-83
2023/08/26 04:52:45;;;;;;;10.50;6.85;;;15.70;99.90;;;;;;5110796;27;20514;-86
2023/08/26 04:55:12;;;;;;;11.43;6.63;;;15.90;99.90;;;;;;5120972;27;20257;-84
2023/08/26 04:57:39;;;;;;;14.00;6.93;;;15.60;99.90;;;;;;5129648;27;20211;-84
2023/08/26 05:00:10;;;;;;;11.07;6.83;;;15.60;99.90;;;;;;5096799;28;20195;-84
2023/08/26 05:02:38;;;;;;;9.93;6.33;;;15.50;99.90;;;;;;5102199;28;20231;-84
2023/08/26 05:05:06;;;;;;;11.40;7.23;;;15.60;99.90;;;;;;5109353;27;20225;-84
2023/08/26 05:07:33;;;;;;;11.37;6.17;;;15.50;99.90;;;;;;5109939;28;20195;-84
2023/08/26 05:10:01;;;;;;;14.10;6.35;;;15.60;99.90;;;;;;5098799;28;20202;-84
2023/08/26 05:12:27;;;;;;;10.07;5.57;;;15.60;99.90;;;;;;5126932;27;20205;-83
2023/08/26 05:14:54;;;;;;;14.00;5.70;;;15.60;99.90;;;;;;5105815;28;20207;-83
2023/08/26 05:17:21;;;;;;;9.20;5.03;;;15.80;99.90;;;;;;5119846;27;20222;-83
2023/08/26 05:19:48;;;;;;;8.80;5.40;;;15.80;99.90;;;;;;5116013;27;20210;-82
2023/08/26 05:22:15;;;;;;;8.40;5.68;;;15.90;99.90;;;;;;5090270;28;20739;-84
2023/08/26 05:24:42;;;;;;;10.85;5.63;;;15.80;99.90;;;;;;5089033;28;20199;-86
2023/08/26 05:27:09;;;;;;;9.82;5.88;;;15.80;99.90;;;;;;5089892;28;20207;-84
2023/08/26 05:29:36;;;;;;;10.38;5.15;;;15.90;99.90;;;;;;5097903;28;20203;-82
2023/08/26 05:32:03;;;;;;;7.32;4.30;;;15.80;99.90;;;;;;5109697;28;20218;-83
2023/08/26 05:34:29;;;;;;;10.93;5.80;;;15.80;99.90;;;;;;5095081;28;20214;-85
2023/08/26 05:36:58;;;;;;;11.13;5.13;;;15.90;99.90;;;;;;5110578;28;20213;-87
2023/08/26 05:39:25;;;;;;;9.73;4.95;;;15.80;99.90;;;;;;5092482;28;20610;-86
2023/08/26 05:41:51;;;;;;;7.53;5.05;;;15.80;99.90;;;;;;5113679;28;20207;-85
2023/08/26 05:44:18;;;;;;;7.57;4.90;;;15.80;99.90;;;;;;5099027;28;20614;-86
2023/08/26 05:46:45;;;;;;;7.03;4.77;;;15.80;99.90;;;;;;5107968;28;20638;-83
2023/08/26 05:49:12;;;;;;;8.88;4.82;;;15.80;99.90;;;;;;5078832;28;20597;-82
2023/08/26 05:51:39;;;;;;;10.15;4.78;;;15.80;99.90;;;;;;5105400;28;20278;-83
2023/08/26 05:54:06;;;;;;;11.20;5.07;;;15.80;99.90;;;;;;5109948;28;20601;-84
2023/08/26 05:56:32;;;;;;;8.05;5.05;;;15.70;99.90;;;;;;5103313;27;20203;-84
2023/08/26 05:58:59;;;;;;;9.30;4.70;;;15.70;99.90;;;;;;5132138;27;20206;-85
2023/08/26 06:01:26;;;;;;;6.72;4.57;;;15.60;99.90;;;;;;5118816;27;20234;-84
2023/08/26 06:03:54;;;;;;;7.75;4.38;;;15.60;99.90;;;;;;5099056;28;20203;-84
2023/08/26 06:06:21;;;;;;;7.23;4.40;;;15.60;99.90;;;;;;5117280;27;20289;-83
2023/08/26 06:08:48;;;;;;;8.82;4.82;;;15.60;99.90;;;;;;5100404;28;20790;-83
2023/08/26 06:11:15;;;;;;;10.70;4.97;;;15.60;99.90;;;;;;5097872;28;20853;-83
2023/08/26 06:13:42;;;;;;;8.32;4.43;;;15.70;99.90;;;;;;5102651;28;20617;-82
2023/08/26 06:16:10;;;;;;;7.10;4.68;;;15.80;99.90;;;;;;5113755;27;20580;-83
2023/08/26 06:18:37;;;;;;;9.75;4.68;;;15.90;99.90;;;;;;5097518;28;20211;-84
2023/08/26 06:21:04;;;;;;;10.57;5.63;;;15.90;99.90;;;;;;5121958;27;20649;-84
2023/08/26 06:23:31;;;;;;;7.38;4.05;;;16.00;99.90;;;;;;5110831;28;20606;-84
2023/08/26 06:25:59;;;;;;;7.43;3.88;;;16.30;99.90;;;;;;5125236;27;20254;-83
2023/08/26 06:28:25;;;;;;;5.57;3.33;;;16.60;99.90;;;;;;5127089;27;20199;-83
2023/08/26 06:30:58;;;;;;;5.05;3.83;;;17.20;99.90;;;;;;5119939;27;20234;-82
2023/08/26 06:33:25;;;;;;;8.07;3.25;;;17.80;99.90;;;;;;5100997;28;20191;-84
2023/08/26 06:35:52;;;;;;;5.10;3.08;;;18.20;99.90;;;;;;5101670;28;20616;-85
2023/08/26 06:38:21;;;;;;;6.43;2.92;;;18.80;99.90;;;;;;5113149;27;20274;-84
2023/08/26 06:40:58;;;;;;;4.72;3.00;;;19.10;99.90;;;;;;5101792;28;20538;-84
2023/08/26 06:43:25;;;;;;;4.78;2.92;;;19.90;99.90;;;;;;5098262;27;20289;-86
2023/08/26 06:45:52;;;;;;;4.35;2.90;;;;;;;;;;5128161;27;20221;-84
2023/08/26 06:48:21;;;;;;;6.95;2.83;;;20.40;99.90;;;;;;5111050;28;20196;-86
2023/08/26 06:50:49;;;;;;;5.70;3.22;;;20.60;99.90;;;;;;5100779;27;20215;-84
2023/08/26 06:53:21;;;;;;;4.72;2.40;;;20.70;99.90;;;;;;5112373;27;20207;-84
2023/08/26 06:55:49;;;;;;;7.13;3.50;;;20.60;99.90;;;;;;5116407;27;20283;-90
2023/08/26 06:58:16;;;;;;;4.55;2.40;;;21.00;99.90;;;;;;5098750;27;20250;-86
2023/08/26 07:00:43;;;;;;;5.10;2.30;;;21.40;99.90;;;;;;5110666;28;20211;-88
2023/08/26 07:03:11;;;;;;;6.22;2.60;;;21.90;99.90;;;;;;5100139;27;20573;-87
2023/08/26 07:05:45;;;;;;;4.97;2.17;;;22.10;99.90;;;;;;5104634;27;20207;-87
2023/08/26 07:08:13;;;;;;;8.18;2.80;;;22.30;99.90;;;;;;5096670;27;20295;-85
2023/08/26 07:10:41;;;;;;;8.10;2.72;;;22.00;99.90;;;;;;5101977;27;20223;-87
2023/08/26 07:13:09;;;;;;;4.40;2.10;;;22.20;99.90;;;;;;5095586;28;20198;-86
2023/08/26 07:15:36;;;;;;;4.32;2.33;;;22.40;99.90;;;;;;5106600;27;20233;-86
2023/08/26 07:18:05;;;;;;;4.50;2.13;;;22.40;99.90;;;;;;5117316;27;20199;-86
2023/08/26 07:20:32;;;;;;;4.20;2.53;;;22.50;99.90;;;;;;5112974;27;20211;-85
2023/08/26 07:22:59;;;;;;;4.53;2.03;;;22.80;99.90;;;;;;5124646;27;20199;-87
2023/08/26 07:25:26;;;;;;;5.65;2.38;;;23.00;99.90;;;;;;5107143;27;20259;-86
2023/08/26 07:27:53;;;;;;;8.52;2.30;;;23.30;99.90;;;;;;5131295;27;20198;-89
2023/08/26 07:30:21;;;;;;;2.72;2.10;;;23.50;99.90;;;;;;5112991;27;20222;-86
2023/08/26 07:32:50;;;;;;;4.57;2.15;;;23.30;99.90;;;;;;5113907;27;20386;-87
2023/08/26 07:35:17;;;;;;;4.97;2.03;;;23.50;99.90;;;;;;5114836;27;20289;-85
2023/08/26 07:37:44;;;;;;;4.70;2.15;;;23.90;99.90;;;;;;5122848;27;20210;-86
2023/08/26 07:40:15;;;;;;;3.33;1.92;;;23.70;99.90;;;;;;5090901;28;20612;-84
2023/08/26 07:42:44;;;;;;;5.57;1.80;;;23.60;99.90;;;;;;5107358;28;20203;-87
2023/08/26 07:45:12;;;;;;;3.10;1.90;;;23.50;99.90;;;;;;5103379;28;20323;-84
2023/08/26 07:47:40;;;;;;;3.72;1.80;;;23.90;99.90;;;;;;5100798;28;20283;-86
2023/08/26 07:50:10;;;;;;;6.13;1.70;;;23.60;99.90;;;;;;5102004;27;20647;-86
2023/08/26 07:52:37;;;;;;;2.60;1.77;;;23.40;99.90;;;;;;5096979;28;20230;-88
2023/08/26 07:55:05;;;;;;;3.20;1.85;;;24.20;99.90;;;;;;5125854;27;20222;-86
2023/08/26 07:57:32;;;;;;;3.13;1.55;;;23.60;99.90;;;;;;5101028;28;20199;-86
2023/08/26 07:59:59;;;;;;;4.10;1.70;;;23.80;99.90;;;;;;5099071;27;20269;-86
2023/08/26 08:02:29;;;;;;;3.50;1.60;;;23.90;99.90;;;;;;5120855;27;20234;-87
2023/08/26 08:04:58;;;;;;;4.32;1.60;;;24.30;99.90;;;;;;5095214;28;20245;-87
2023/08/26 08:07:25;;;;;;;2.40;1.25;;;24.30;99.90;;;;;;5107333;27;20302;-86
2023/08/26 08:09:55;;;;;;;3.90;1.23;;;24.50;99.90;;;;;;5110963;28;20286;-86
2023/08/26 08:12:22;;;;;;;6.65;1.70;;;24.90;99.90;;;;;;5112134;28;20280;-87
2023/08/26 08:14:49;;;;;;;3.88;1.30;;;24.90;99.90;;;;;;5094361;28;20259;-89
2023/08/26 08:17:16;;;;;;;4.57;1.85;;;24.70;99.90;;;;;;5111128;28;20241;-88
2023/08/26 08:19:45;;;;;;;6.68;2.00;;;24.50;99.90;;;;;;5096358;28;20210;-85
2023/08/26 08:22:16;;;;;;;4.13;1.67;;;24.20;99.90;;;;;;5111666;28;20619;-85
2023/08/26 08:24:46;;;;;;;2.50;1.38;;;24.20;99.90;;;;;;5111506;28;20203;-85
2023/08/26 08:27:13;;;;;;;3.50;1.30;;;24.50;99.90;;;;;;5092252;28;20207;-85
2023/08/26 08:29:40;;;;;;;1.88;1.35;;;24.50;99.90;;;;;;5092872;28;20252;-82
2023/08/26 08:32:07;;;;;;;3.50;1.40;;;24.50;99.90;;;;;;5092968;28;20245;-87
2023/08/26 08:34:34;;;;;;;4.22;1.73;;;24.40;99.90;;;;;;5092828;28;20659;-83
2023/08/26 08:37:00;;;;;;;2.17;1.33;;;24.30;99.90;;;;;;5093036;28;20255;-82
2023/08/26 08:39:27;;;;;;;3.53;1.77;;;24.20;99.90;;;;;;5112270;28;20229;-84
2023/08/26 08:41:55;;;;;;;6.22;1.90;;;24.10;99.90;;;;;;5093043;28;20188;-84
2023/08/26 08:44:25;;;;;;;4.10;1.75;;;24.10;99.90;;;;;;5111294;28;20672;-85
2023/08/26 08:46:52;;;;;;;4.30;1.88;;;24.30;99.90;;;;;;5092840;28;20227;-84
2023/08/26 08:49:20;;;;;;;3.13;1.42;;;24.40;99.90;;;;;;5092652;28;20241;-82
2023/08/26 08:51:48;;;;;;;4.90;2.30;;;24.50;99.90;;;;;;5093487;28;20595;-83
2023/08/26 08:54:16;;;;;;;2.25;1.33;;;24.10;99.90;;;;;;5094608;28;20285;-85
2023/08/26 08:56:43;;;;;;;6.07;1.67;;;24.20;99.90;;;;;;5111743;28;20215;-81
2023/08/26 08:59:12;;;;;;;3.22;1.50;;;24.40;99.90;;;;;;5092549;28;20282;-85
2023/08/26 09:01:39;;;;;;;4.18;1.63;;;24.30;99.90;;;;;;5085047;28;20268;-83
2023/08/26 09:04:07;;;;;;;4.18;2.10;;;24.30;99.90;;;;;;5091967;28;20318;-85
2023/08/26 09:06:34;;;;;;;2.53;1.50;;;24.10;99.90;;;;;;5091778;28;20207;-83
2023/08/26 09:09:10;;;;;;;6.75;1.63;;;23.80;99.90;;;;;;5110709;28;20221;-86
2023/08/26 09:11:50;;;;;;;4.32;1.58;;;23.60;99.90;;;;;;5110348;28;20241;-83
2023/08/26 09:14:20;;;;;;;3.85;1.98;;;23.50;99.90;;;;;;5110773;28;20310;-83
2023/08/26 09:16:46;;;;;;;4.13;1.80;;;23.30;99.90;;;;;;5093232;28;20219;-87
2023/08/26 09:19:14;;;;;;;3.25;1.70;;;23.50;99.90;;;;;;5110319;28;20213;-84
2023/08/26 09:21:45;;;;;;;3.03;1.30;;;23.60;99.90;;;;;;5091722;28;20671;-85
2023/08/26 09:24:13;;;;;;;2.97;1.35;;;23.50;99.90;;;;;;5092129;28;20214;-85
2023/08/26 09:26:58;;;;;;;3.78;1.50;;;23.50;99.90;;;;;;5092218;28;20210;-86
2023/08/26 09:29:26;;;;;;;5.35;1.30;;;23.50;99.90;;;;;;5094276;28;20199;-83
2023/08/26 09:31:53;;;;;;;1.50;1.40;;;23.40;99.90;;;;;;5096118;28;20241;-85
2023/08/26 09:34:25;;;;;;;4.85;1.55;;;23.30;99.90;;;;;;5114325;28;20679;-82
2023/08/26 09:36:52;;;;;;;3.70;1.30;;;23.60;99.90;;;;;;5096578;28;20263;-85
2023/08/26 09:39:21;;;;;;;2.65;1.38;;;23.00;99.90;;;;;;5096515;28;20210;-83
2023/08/26 09:41:48;;;;;;;2.47;1.15;;;22.90;99.90;;;;;;5096054;28;20210;-83
2023/08/26 09:44:16;;;;;;;2.25;1.27;;;22.70;99.90;;;;;;5114154;28;20210;-84
2023/08/26 09:46:47;;;;;;;3.05;1.45;;;22.90;99.90;;;;;;5114120;28;20305;-83
2023/08/26 09:49:15;;;;;;;2.05;1.05;;;23.00;99.90;;;;;;5095704;28;20211;-82
2023/08/26 09:51:46;;;;;;;2.75;1.13;;;23.20;99.90;;;;;;5087572;28;20994;-80
2023/08/26 09:54:21;;;;;;;2.45;1.20;;;23.40;99.90;;;;;;5101877;27;20208;-80
2023/08/26 09:56:49;;;;;;;2.92;1.52;;;23.60;99.90;;;;;;5094831;28;20194;-82
2023/08/26 09:59:17;;;;;;;3.78;1.38;;;23.80;99.90;;;;;;5113351;28;20204;-82
2023/08/26 10:01:44;;;;;;;2.65;0.93;;;23.60;99.90;;;;;;5125229;27;20223;-81
2023/08/26 10:04:15;;;;;;;1.67;1.20;;;23.60;99.90;;;;;;5111296;27;20714;-80
2023/08/26 10:06:47;;;;;;;2.35;1.13;;;23.60;99.90;;;;;;5118558;27;20210;-77
2023/08/26 10:09:38;;;;;;;4.72;1.25;;;23.90;99.90;;;;;;5112233;28;20207;-79
2023/08/26 10:12:08;;;;;;;1.77;0.80;;;23.70;99.90;;;;;;5108905;28;20620;-78
2023/08/26 10:14:39;;;;;;;2.92;1.10;;;23.70;99.90;;;;;;5127839;27;20213;-79
2023/08/26 10:17:11;;;;;;;2.25;0.70;;;23.80;99.90;;;;;;5123636;27;20631;-78
2023/08/26 10:19:39;;;;;;;1.30;1.13;;;23.80;99.90;;;;;;5102568;28;20683;-80
2023/08/26 10:22:06;;;;;;;3.58;1.10;;;23.70;99.90;;;;;;5094171;28;20199;-80
2023/08/26 10:24:33;;;;;;;2.22;1.00;;;23.40;99.90;;;;;;5119072;27;20205;-81
2023/08/26 10:27:01;;;;;;;1.00;0.90;;;22.90;99.90;;;;;;5110080;27;20252;-78
2023/08/26 10:29:27;;;;;;;2.92;1.30;;;22.40;99.90;;;;;;5102938;27;20222;-78
2023/08/26 10:31:55;;;;;;;4.80;1.95;;;22.30;99.90;;;;;;5129530;27;20222;-81
2023/08/26 10:34:30;;;;;;;2.10;1.17;;;22.40;99.90;;;;;;5121567;27;20195;-78
2023/08/26 10:37:00;;;;;;;2.22;0.90;;;22.50;99.90;;;;;;5107918;27;20205;-82
2023/08/26 10:39:27;;;;;;;2.00;1.10;;;22.60;99.90;;;;;;5115723;27;20699;-81
2023/08/26 10:42:12;;;;;;;2.40;1.20;;;22.60;99.90;;;;;;5118471;27;20658;-80
2023/08/26 10:44:42;;;;;;;1.80;1.17;;;22.50;99.90;;;;;;5129550;27;20206;-80
2023/08/26 10:47:10;;;;;;;2.92;1.27;;;22.70;99.90;;;;;;5117216;27;20210;-79
2023/08/26 10:49:37;;;;;;;3.33;1.25;;;22.50;99.90;;;;;;5128934;27;20199;-79
2023/08/26 10:52:09;;;;;;;2.10;1.67;;;22.50;99.90;;;;;;5107743;27;20223;-79
2023/08/26 10:54:36;;;;;;;2.25;1.35;;;22.50;99.90;;;;;;5107182;27;20290;-82
2023/08/26 10:57:07;;;;;;;2.08;1.40;;;22.20;99.90;;;;;;5129832;27;20217;-80
2023/08/26 10:59:36;;;;;;;2.28;1.30;;;21.90;99.90;;;;;;5132762;27;20217;-81
2023/08/26 11:02:07;;;;;;;2.15;1.55;;;21.80;99.90;;;;;;5129014;27;20263;-81
2023/08/26 11:04:45;;;;;;;3.78;2.05;;;21.60;99.90;;;;;;5128630;27;20237;-80
2023/08/26 11:07:16;;;;;;;1.70;1.33;;;21.40;99.90;;;;;;5098818;28;20580;-81
2023/08/26 11:09:44;;;;;;;2.13;1.50;;;21.60;99.90;;;;;;5112368;28;20218;-79
2023/08/26 11:12:27;;;;;;;2.97;1.48;;;21.80;99.90;;;;;;5106887;28;20223;-80
2023/08/26 11:15:06;;;;;;;2.28;1.60;;;22.10;99.90;;;;;;5112349;28;20203;-80
2023/08/26 11:17:34;;;;;;;3.75;1.58;;;22.30;99.90;;;;;;5092681;28;20210;-80
2023/08/26 11:20:17;;;;;;;1.80;1.35;;;22.60;99.90;;;;;;5110661;28;20295;-80
2023/08/26 11:22:45;;;;;;;2.58;1.58;;;22.80;99.90;;;;;;5110574;28;20601;-79
2023/08/26 11:25:16;;;;;;;3.90;1.88;;;23.00;99.90;;;;;;5112107;28;20207;-79
2023/08/26 11:27:43;;;;;;;2.67;1.80;;;22.90;99.90;;;;;;5110054;28;20245;-77
2023/08/26 11:30:11;;;;;;;2.90;1.77;;;23.00;99.90;;;;;;5110554;28;20213;-79
2023/08/26 11:32:39;;;;;;;2.10;1.70;;;22.80;99.90;;;;;;5110253;28;20226;-80
2023/08/26 11:35:09;;;;;;;2.92;1.80;;;22.80;99.90;;;;;;5092322;28;20235;-79
2023/08/26 11:37:48;;;;;;;2.78;1.55;;;22.90;99.90;;;;;;5092629;28;20214;-78
2023/08/26 11:40:15;;;;;;;3.53;1.80;;;22.90;99.90;;;;;;5111017;28;20206;-78
2023/08/26 11:42:44;;;;;;;2.58;1.60;;;22.90;99.90;;;;;;5090258;28;20205;-78
2023/08/26 11:45:12;;;;;;;3.83;2.30;;;22.90;99.90;;;;;;5085261;28;20261;-78
2023/08/26 11:47:42;;;;;;;1.95;1.75;;;22.90;99.90;;;;;;5108546;28;20230;-79
2023/08/26 11:50:10;;;;;;;3.17;1.85;;;23.00;99.90;;;;;;5110447;28;20833;-76
2023/08/26 11:52:38;;;;;;;2.47;1.88;;;23.10;99.90;;;;;;5108636;28;20235;-79
2023/08/26 11:55:07;;;;;;;4.97;2.10;;;23.30;99.90;;;;;;5102186;28;20538;-78
2023/08/26 11:57:36;;;;;;;5.32;2.00;;;22.80;99.90;;;;;;5108921;28;20582;-77
2023/08/26 12:00:16;;;;;;;3.42;2.40;;;22.90;99.90;;;;;;5108537;28;20211;-77
2023/08/26 12:02:47;;;;;;;3.28;2.30;;;22.70;99.90;;;;;;5105507;28;20591;-79
2023/08/26 12:05:18;;;;;;;3.30;1.77;;;22.80;99.90;;;;;;5111254;28;20713;-77
2023/08/26 12:07:46;;;;;;;4.93;2.20;;;22.70;99.90;;;;;;5112260;27;20206;-79
2023/08/26 12:10:14;;;;;;;3.88;1.80;;;22.70;99.90;;;;;;5110540;28;20199;-77
2023/08/26 12:12:42;;;;;;;3.60;1.98;;;22.80;99.90;;;;;;5092451;28;20244;-78
2023/08/26 12:15:11;;;;;;;2.00;1.80;;;22.70;99.90;;;;;;5110533;28;20210;-77
2023/08/26 12:17:50;;;;;;;4.13;2.05;;;22.80;99.90;;;;;;5106092;28;20735;-78
2023/08/26 12:20:24;;;;;;;3.38;1.90;;;22.70;99.90;;;;;;5109256;28;20192;-78
2023/08/26 12:22:53;;;;;;;5.18;2.10;;;22.80;99.90;;;;;;5104869;28;20762;-79
2023/08/26 12:25:25;;;;;;;3.55;1.90;;;22.70;99.90;;;;;;5106772;28;20264;-81
2023/08/26 12:27:52;;;;;;;2.45;2.08;;;22.60;99.90;;;;;;5108792;28;20211;-77
2023/08/26 12:30:22;;;;;;;3.30;2.55;;;22.50;99.90;;;;;;5095303;28;20671;-80
2023/08/26 12:32:49;;;;;;;2.40;2.00;;;22.40;99.90;;;;;;5092563;28;20245;-79
2023/08/26 12:35:15;;;;;;;5.38;2.20;;;22.40;99.90;;;;;;5090687;28;20211;-79
2023/08/26 12:37:42;;;;;;;2.35;2.15;;;22.40;99.90;;;;;;5103808;28;20211;-79
2023/08/26 12:40:10;;;;;;;4.97;2.67;;;22.40;99.90;;;;;;5106305;28;20207;-78
2023/08/26 12:42:39;;;;;;;2.60;1.95;;;22.40;99.90;;;;;;5102108;28;20210;-79
2023/08/26 12:45:06;;;;;;;9.57;3.33;;;22.40;99.90;;;;;;5106329;28;20215;-80
2023/08/26 12:47:33;;;;;;;5.47;2.63;;;22.20;99.90;;;;;;5088580;28;20651;-83
2023/08/26 12:50:00;;;;;;;2.80;2.58;;;22.10;99.90;;;;;;5105397;28;20210;-83
2023/08/26 12:52:27;;;;;;;4.10;2.70;;;22.00;99.90;;;;;;5089655;28;20555;-82